createdAt,value
2018-02-13T00:49:22.525Z,16.95
2018-02-13T00:51:50.054Z,8.65
2018-02-13T00:54:17.613Z,8.68
2018-02-13T00:56:45.170Z,8.88
2018-02-13T00:59:12.690Z,15.40
2018-02-13T01:01:40.233Z,8.32
2018-02-13T01:04:07.748Z,12.30
2018-02-13T01:06:35.717Z,9.60
2018-02-13T01:09:03.237Z,8.68
2018-02-13T01:11:30.743Z,9.00
2018-02-13T01:13:58.286Z,18.17
2018-02-13T01:16:25.802Z,8.85
2018-02-13T01:18:53.491Z,9.65
2018-02-13T01:21:21.002Z,8.00
2018-02-13T01:23:48.517Z,11.32
2018-02-13T01:26:16.062Z,13.40
2018-02-13T01:28:43.565Z,8.10
2018-02-13T01:31:11.117Z,25.23
2018-02-13T01:33:38.625Z,7.57
2018-02-13T01:36:06.138Z,23.87
2018-02-13T01:38:33.682Z,11.35
2018-02-13T01:41:01.195Z,11.48
2018-02-13T01:43:28.943Z,11.95
2018-02-13T01:45:56.443Z,10.43
2018-02-13T01:48:23.957Z,15.60
2018-02-13T01:50:51.500Z,8.38
2018-02-13T01:53:19.019Z,13.02
2018-02-13T01:55:46.567Z,9.48
2018-02-13T01:58:14.077Z,9.18
2018-02-13T02:00:41.589Z,8.30
2018-02-13T02:03:09.127Z,5.65
2018-02-13T02:05:37.125Z,6.55
2018-02-13T02:08:04.783Z,9.70
2018-02-13T02:10:32.298Z,5.95
2018-02-13T02:12:59.821Z,12.50
2018-02-13T02:15:27.398Z,13.70
2018-02-13T02:17:54.914Z,15.30
2018-02-13T02:20:22.577Z,8.73
2018-02-13T02:22:50.090Z,15.95
2018-02-13T02:25:17.598Z,12.77
2018-02-13T02:27:45.129Z,8.93
2018-02-13T02:30:12.642Z,7.40
2018-02-13T02:32:40.373Z,7.53
2018-02-13T02:35:07.882Z,8.48
2018-02-13T02:37:35.402Z,16.65
2018-02-13T02:40:02.941Z,16.27
2018-02-13T02:42:42.188Z,12.77
2018-02-13T02:45:09.816Z,6.50
2018-02-13T02:47:37.337Z,10.95
2018-02-13T02:50:04.869Z,10.07
2018-02-13T02:52:32.398Z,9.70
2018-02-13T02:54:59.915Z,7.07
2018-02-13T02:57:27.744Z,8.38
2018-02-13T02:59:55.255Z,12.93
2018-02-13T03:02:22.766Z,7.47
2018-02-13T03:04:50.306Z,11.23
2018-02-13T03:07:17.832Z,12.75
2018-02-13T03:09:45.398Z,9.00
2018-02-13T03:12:12.913Z,11.82
2018-02-13T03:14:40.431Z,8.10
2018-02-13T03:17:07.995Z,9.77
2018-02-13T03:19:35.506Z,8.70
2018-02-13T03:22:06.167Z,12.07
2018-02-13T03:24:34.063Z,5.35
2018-02-13T03:27:02.170Z,10.80
2018-02-13T03:29:30.048Z,10.35
2018-02-13T03:31:57.561Z,11.63
2018-02-13T03:34:25.575Z,7.50
2018-02-13T03:36:53.094Z,6.72
2018-02-13T03:39:21.721Z,8.10
2018-02-13T03:41:49.269Z,13.30
2018-02-13T03:44:16.936Z,9.32
2018-02-13T03:46:44.814Z,7.05
2018-02-13T03:49:13.623Z,8.68
2018-02-13T03:51:41.452Z,16.48
2018-02-13T03:54:09.384Z,14.23
2018-02-13T03:56:36.895Z,7.47
2018-02-13T03:59:04.605Z,8.45
2018-02-13T04:01:32.365Z,6.47
2018-02-13T04:03:59.890Z,7.80
2018-02-13T04:06:27.430Z,5.47
2018-02-13T04:08:54.953Z,6.07
2018-02-13T04:11:22.814Z,10.05
2018-02-13T04:13:50.321Z,9.70
2018-02-13T04:16:17.833Z,7.90
2018-02-13T04:18:45.386Z,7.35
2018-02-13T04:21:12.962Z,9.13
2018-02-13T04:23:40.714Z,8.38
2018-02-13T04:26:08.260Z,13.60
2018-02-13T04:28:35.831Z,9.43
2018-02-13T04:31:03.393Z,9.10
2018-02-13T04:33:30.921Z,10.85
2018-02-13T04:35:58.485Z,9.55
2018-02-13T04:38:26.006Z,9.48
2018-02-13T04:40:53.524Z,8.00
2018-02-13T04:43:21.074Z,13.23
2018-02-13T04:45:48.662Z,10.20
2018-02-13T04:48:16.238Z,3.15
2018-02-13T04:50:43.750Z,7.47
2018-02-13T04:53:11.266Z,10.68
2018-02-13T04:55:38.813Z,5.82
2018-02-13T04:58:06.325Z,6.03
2018-02-13T05:00:34.044Z,6.40
2018-02-13T05:03:01.542Z,11.38
2018-02-13T05:05:29.062Z,7.12
2018-02-13T05:07:56.617Z,16.70
2018-02-13T05:10:24.134Z,9.75
2018-02-13T05:12:51.858Z,9.55
2018-02-13T05:15:19.357Z,7.80
2018-02-13T05:17:46.875Z,5.32
2018-02-13T05:20:14.425Z,10.77
2018-02-13T05:22:41.956Z,8.52
2018-02-13T05:25:13.685Z,19.95
2018-02-13T05:27:41.233Z,7.87
2018-02-13T05:30:08.755Z,12.80
2018-02-13T05:32:36.306Z,7.30
2018-02-13T05:35:05.609Z,8.85
2018-02-13T05:37:33.722Z,16.50
2018-02-13T05:40:01.698Z,9.98
2018-02-13T05:42:29.404Z,10.23
2018-02-13T05:44:57.162Z,13.65
2018-02-13T05:47:24.819Z,18.58
2018-02-13T05:49:52.678Z,12.68
2018-02-13T05:52:20.237Z,9.93
2018-02-13T05:54:47.806Z,12.15
2018-02-13T05:57:15.357Z,11.00
2018-02-13T05:59:42.886Z,12.20
2018-02-13T06:02:10.429Z,8.57
2018-02-13T06:04:37.964Z,9.00
2018-02-13T06:07:05.477Z,12.98
2018-02-13T06:09:33.034Z,10.27
2018-02-13T06:12:00.559Z,15.40
2018-02-13T06:14:28.259Z,15.45
2018-02-13T06:16:55.774Z,8.52
2018-02-13T06:19:23.286Z,10.23
2018-02-13T06:21:50.846Z,11.12
2018-02-13T06:24:18.356Z,9.20
2018-02-13T06:26:46.022Z,12.88
2018-02-13T06:29:13.546Z,8.75
2018-02-13T06:31:41.065Z,7.47
2018-02-13T06:34:08.614Z,11.48
2018-02-13T06:36:36.126Z,13.10
2018-02-13T06:39:04.081Z,11.32
2018-02-13T06:41:31.598Z,10.65
2018-02-13T06:43:59.128Z,13.07
2018-02-13T06:46:26.674Z,15.38
2018-02-13T06:48:54.189Z,12.30
2018-02-13T06:51:21.739Z,16.23
2018-02-13T06:53:49.263Z,15.70
2018-02-13T06:56:16.778Z,14.82
2018-02-13T06:58:44.413Z,16.20
2018-02-13T07:01:11.927Z,13.35
2018-02-13T07:03:39.845Z,16.27
2018-02-13T07:06:07.379Z,13.40
2018-02-13T07:08:34.906Z,14.32
2018-02-13T07:11:02.463Z,9.77
2018-02-13T07:13:29.987Z,11.32
2018-02-13T07:15:57.849Z,9.98
2018-02-13T07:18:25.402Z,10.75
2018-02-13T07:20:52.926Z,9.57
2018-02-13T07:23:20.474Z,5.20
2018-02-13T07:25:47.994Z,8.73
2018-02-13T07:28:15.547Z,6.53
2018-02-13T07:30:43.078Z,17.75
2018-02-13T07:33:10.617Z,8.05
2018-02-13T07:35:38.169Z,7.82
2018-02-13T07:38:05.692Z,5.93
2018-02-13T07:40:33.264Z,12.82
2018-02-13T07:43:00.792Z,6.60
2018-02-13T07:45:28.307Z,7.43
2018-02-13T07:47:55.885Z,6.72
2018-02-13T07:50:23.398Z,10.77
2018-02-13T07:52:50.955Z,6.35
2018-02-13T07:55:18.478Z,18.37
2018-02-13T07:57:45.986Z,4.57
2018-02-13T08:00:13.526Z,10.68
2018-02-13T08:02:41.037Z,7.47
2018-02-13T08:05:08.926Z,6.47
2018-02-13T08:07:36.433Z,4.95
2018-02-13T08:10:03.965Z,13.73
2018-02-13T08:12:31.505Z,8.10
2018-02-13T08:14:59.141Z,5.80
2018-02-13T08:17:26.721Z,13.52
2018-02-13T08:19:54.377Z,9.18
2018-02-13T08:22:21.893Z,10.13
2018-02-13T08:24:49.442Z,8.15
2018-02-13T08:27:16.948Z,6.00
2018-02-13T08:29:44.618Z,6.43
2018-02-13T08:32:12.137Z,5.80
2018-02-13T08:34:39.650Z,10.00
2018-02-13T08:37:07.182Z,7.65
2018-02-13T08:39:34.694Z,12.63
2018-02-13T08:42:02.337Z,10.10
2018-02-13T08:44:29.849Z,4.72
2018-02-13T08:46:57.370Z,3.60
2018-02-13T08:49:24.962Z,10.48
2018-02-13T08:51:52.490Z,11.20
2018-02-13T08:54:20.036Z,8.82
2018-02-13T08:56:47.550Z,10.13
2018-02-13T08:59:15.070Z,6.95
2018-02-13T09:01:42.624Z,11.12
2018-02-13T09:04:10.130Z,4.78
2018-02-13T09:06:37.813Z,14.90
2018-02-13T09:09:05.346Z,4.28
2018-02-13T09:11:32.886Z,6.65
2018-02-13T09:14:00.430Z,5.28
2018-02-13T09:16:27.941Z,6.43
2018-02-13T09:18:55.702Z,11.82
2018-02-13T09:21:23.242Z,4.12
2018-02-13T09:23:50.749Z,9.88
2018-02-13T09:26:18.287Z,9.05
2018-02-13T09:28:45.797Z,2.80
2018-02-13T09:31:13.373Z,5.97
2018-02-13T09:33:40.886Z,3.05
2018-02-13T09:36:08.397Z,2.60
2018-02-13T09:38:35.993Z,4.32
2018-02-13T09:41:03.501Z,7.70
2018-02-13T09:43:31.062Z,4.05
2018-02-13T09:45:58.573Z,4.90
2018-02-13T09:48:26.742Z,5.20
2018-02-13T09:50:54.404Z,2.33
2018-02-13T09:53:21.928Z,3.57
2018-02-13T09:55:49.606Z,4.27
2018-02-13T09:58:17.123Z,10.07
2018-02-13T10:00:44.640Z,9.37
2018-02-13T10:03:12.188Z,7.20
2018-02-13T10:05:39.702Z,3.70
2018-02-13T10:08:07.727Z,9.33
2018-02-13T10:10:35.249Z,23.10
2018-02-13T10:13:02.774Z,7.17
2018-02-13T10:15:30.549Z,1.73
2018-02-13T10:17:58.476Z,3.53
2018-02-13T10:20:26.244Z,3.23
2018-02-13T10:22:53.799Z,7.40
2018-02-13T10:25:21.359Z,5.93
2018-02-13T10:27:48.897Z,5.53
2018-02-13T10:30:16.410Z,4.83
2018-02-13T10:32:44.893Z,3.00
2018-02-13T10:35:12.383Z,9.23
2018-02-13T10:37:39.925Z,2.60
2018-02-13T10:40:07.481Z,4.53
2018-02-13T10:42:35.069Z,5.33
2018-02-13T10:45:02.728Z,8.57
2018-02-13T10:47:30.418Z,5.40
2018-02-13T10:49:57.976Z,3.67
2018-02-13T10:52:25.965Z,6.53
2018-02-13T10:54:53.824Z,5.40
2018-02-13T10:57:21.553Z,3.37
2018-02-13T10:59:49.377Z,2.67
2018-02-13T11:02:22.902Z,3.70
2018-02-13T11:04:50.848Z,3.90
2018-02-13T11:07:18.890Z,9.07
2018-02-13T11:09:46.547Z,10.70
2018-02-13T11:12:14.114Z,6.07
2018-02-13T11:14:41.736Z,6.33
2018-02-13T11:17:09.333Z,6.73
2018-02-13T11:19:37.085Z,5.83
2018-02-13T11:22:04.706Z,6.73
2018-02-13T11:24:32.509Z,10.40
2018-02-13T11:27:00.478Z,8.20
2018-02-13T11:29:28.285Z,4.00
2018-02-13T11:31:56.831Z,5.87
2018-02-13T11:34:24.482Z,4.93
2018-02-13T11:36:52.149Z,5.70
2018-02-13T11:39:19.904Z,3.70
2018-02-13T11:41:47.422Z,6.07
2018-02-13T11:44:14.940Z,10.73
2018-02-13T11:46:42.497Z,5.67
2018-02-13T11:49:10.011Z,12.20
2018-02-13T11:51:37.814Z,5.63
2018-02-13T11:54:05.577Z,10.90
2018-02-13T11:56:33.180Z,3.17
2018-02-13T11:59:00.709Z,3.13
2018-02-13T12:01:28.227Z,5.90
2018-02-13T12:03:55.777Z,5.40
2018-02-13T12:06:23.390Z,6.13
2018-02-13T12:08:51.112Z,8.77
2018-02-13T12:11:18.673Z,3.63
2018-02-13T12:13:46.228Z,3.83
2018-02-13T12:16:14.217Z,6.60
2018-02-13T12:18:41.786Z,5.57
2018-02-13T12:21:09.649Z,3.87
2018-02-13T12:23:37.224Z,6.57
2018-02-13T12:26:04.972Z,10.20
2018-02-13T12:28:33.453Z,9.60
2018-02-13T12:31:01.218Z,4.33
2018-02-13T12:33:28.880Z,6.30
2018-02-13T12:35:56.576Z,5.03
2018-02-13T12:38:24.509Z,5.67
2018-02-13T12:40:52.682Z,6.33
2018-02-13T12:43:20.408Z,9.37
2018-02-13T12:45:48.211Z,11.60
2018-02-13T12:48:15.974Z,6.97
2018-02-13T12:50:43.740Z,27.40
2018-02-13T12:53:11.450Z,8.52
2018-02-13T12:55:39.281Z,5.62
2018-02-13T12:58:06.875Z,7.53
2018-02-13T13:00:34.411Z,20.17
2018-02-13T13:03:02.188Z,13.15
2018-02-13T13:05:29.909Z,4.10
2018-02-13T13:07:57.537Z,2.80
2018-02-13T13:10:25.117Z,3.65
2018-02-13T13:12:52.694Z,5.65
2018-02-13T13:15:20.197Z,8.63
2018-02-13T13:17:47.998Z,8.25
2018-02-13T13:20:15.589Z,4.30
2018-02-13T13:22:43.098Z,8.52
2018-02-13T13:25:10.671Z,3.08
2018-02-13T13:27:38.330Z,20.88
2018-02-13T13:30:05.878Z,5.20
2018-02-13T13:32:33.409Z,5.43
2018-02-13T13:35:00.931Z,3.85
2018-02-13T13:37:28.473Z,5.35
2018-02-13T13:39:55.990Z,5.12
2018-02-13T13:42:23.901Z,3.53
2018-02-13T13:44:51.414Z,3.08
2018-02-13T13:47:18.942Z,7.87
2018-02-13T13:49:46.665Z,6.22
2018-02-13T13:52:14.198Z,6.25
2018-02-13T13:54:41.758Z,3.80
2018-02-13T13:57:09.270Z,9.52
2018-02-13T13:59:36.784Z,2.40
2018-02-13T14:02:04.392Z,7.28
2018-02-13T14:04:32.010Z,7.28
2018-02-13T14:07:00.702Z,3.03
2018-02-13T14:09:28.375Z,7.95
2018-02-13T14:11:56.082Z,4.10
2018-02-13T14:14:23.622Z,3.65
2018-02-13T14:16:51.977Z,4.35
2018-02-13T14:19:19.642Z,6.62
2018-02-13T14:21:47.221Z,4.05
2018-02-13T14:24:14.787Z,4.00
2018-02-13T14:26:42.440Z,4.15
2018-02-13T14:29:09.979Z,10.25
2018-02-13T14:31:37.538Z,2.55
2018-02-13T14:34:05.046Z,3.42
2018-02-13T14:36:32.770Z,5.60
2018-02-13T14:39:00.277Z,3.53
2018-02-13T14:41:27.803Z,51.05
2018-02-13T14:43:55.378Z,131.60
2018-02-13T14:46:23.017Z,30.98
2018-02-13T14:48:50.984Z,7.85
2018-02-13T14:51:18.702Z,10.63
2018-02-13T14:53:46.821Z,3.03
2018-02-13T14:56:14.449Z,3.65
2018-02-13T14:58:42.134Z,2.92
2018-02-13T15:01:09.722Z,5.12
2018-02-13T15:03:37.291Z,9.20
2018-02-13T15:06:04.924Z,6.87
2018-02-13T15:08:32.565Z,3.83
2018-02-13T15:11:00.166Z,3.97
2018-02-13T15:13:27.889Z,8.73
2018-02-13T15:15:55.898Z,4.03
2018-02-13T15:18:30.362Z,8.88
2018-02-13T15:20:57.958Z,5.12
2018-02-13T15:23:25.492Z,12.52
2018-02-13T15:25:53.282Z,10.77
2018-02-13T15:28:20.945Z,3.80
2018-02-13T15:30:49.193Z,7.18
2018-02-13T15:33:16.765Z,7.72
2018-02-13T15:35:44.425Z,6.05
2018-02-13T15:38:12.103Z,6.25
2018-02-13T15:40:39.907Z,6.03
2018-02-13T15:43:07.637Z,10.07
2018-02-13T15:45:35.294Z,5.37
2018-02-13T15:48:02.852Z,5.60
2018-02-13T15:50:30.617Z,14.82
2018-02-13T15:52:58.294Z,12.05
2018-02-13T15:55:26.349Z,8.57
2018-02-13T15:57:53.897Z,20.30
2018-02-13T16:00:21.479Z,10.75
2018-02-13T16:02:49.098Z,9.02
2018-02-13T16:05:16.894Z,17.80
2018-02-13T16:07:44.658Z,6.97
2018-02-13T16:10:12.728Z,14.87
2018-02-13T16:12:40.499Z,11.57
2018-02-13T16:15:08.263Z,9.85
2018-02-13T16:17:35.932Z,8.10
2018-02-13T16:20:04.821Z,4.37
2018-02-13T16:22:32.690Z,7.30
2018-02-13T16:25:00.667Z,11.27
2018-02-13T16:27:28.311Z,9.02
2018-02-13T16:29:56.070Z,11.10
2018-02-13T16:32:23.834Z,14.80
2018-02-13T16:34:51.952Z,10.63
2018-02-13T16:37:19.822Z,12.48
2018-02-13T16:39:48.449Z,21.83
2018-02-13T16:42:16.604Z,30.58
2018-02-13T16:44:45.424Z,23.90
2018-02-13T16:47:13.679Z,16.17
2018-02-13T16:49:42.378Z,9.88
2018-02-13T16:52:10.454Z,11.90
2018-02-13T16:54:38.648Z,7.68
2018-02-13T16:57:06.919Z,6.65
2018-02-13T16:59:35.169Z,7.30
2018-02-13T17:02:03.322Z,10.25
2018-02-13T17:04:31.605Z,10.63
2018-02-13T17:06:59.510Z,7.05
2018-02-13T17:09:27.822Z,12.88
2018-02-13T17:11:56.884Z,11.60
2018-02-13T17:14:25.362Z,16.17
2018-02-13T17:16:53.333Z,11.95
2018-02-13T17:19:21.182Z,16.65
2018-02-13T17:21:50.952Z,9.80
2018-02-13T17:24:20.288Z,10.43
2018-02-13T17:26:49.480Z,12.85
2018-02-13T17:29:17.871Z,12.40
2018-02-13T17:31:46.169Z,30.88
2018-02-13T17:34:14.013Z,26.75
2018-02-13T17:36:41.760Z,23.62
2018-02-13T17:39:09.847Z,17.40
2018-02-13T17:41:37.937Z,21.65
2018-02-13T17:44:05.991Z,9.07
2018-02-13T17:46:33.669Z,17.58
2018-02-13T17:49:01.914Z,18.37
2018-02-13T17:51:30.091Z,19.35
2018-02-13T17:53:58.176Z,11.70
2018-02-13T17:56:26.245Z,12.88
2018-02-13T17:58:54.433Z,12.48
2018-02-13T18:01:23.330Z,10.15
2018-02-13T18:03:51.382Z,15.88
2018-02-13T18:06:19.353Z,23.73
2018-02-13T18:08:47.603Z,22.10
2018-02-13T18:11:15.947Z,15.80
2018-02-13T18:13:46.114Z,13.73
2018-02-13T18:16:14.536Z,18.20
2018-02-13T18:18:42.663Z,14.82
2018-02-13T18:21:10.454Z,9.00
2018-02-13T18:23:39.580Z,19.95
2018-02-13T18:26:07.921Z,16.23
2018-02-13T18:28:36.561Z,14.25
2018-02-13T18:31:04.466Z,14.63
2018-02-13T18:33:32.865Z,18.00
2018-02-13T18:36:01.417Z,20.92
2018-02-13T18:38:29.614Z,22.83
2018-02-13T18:40:58.157Z,35.78
2018-02-13T18:43:26.348Z,22.35
2018-02-13T18:45:54.732Z,16.40
2018-02-13T18:48:23.177Z,16.65
2018-02-13T18:50:51.130Z,15.77
2018-02-13T18:53:19.227Z,23.92
2018-02-13T18:55:47.089Z,28.73
2018-02-13T18:58:14.959Z,27.23
2018-02-13T19:00:44.562Z,28.83
2018-02-13T19:03:13.015Z,18.67
2018-02-13T19:05:42.484Z,17.33
2018-02-13T19:08:10.870Z,9.30
2018-02-13T19:10:38.827Z,13.75
2018-02-13T19:13:06.980Z,14.00
2018-02-13T19:15:35.345Z,9.98
2018-02-13T19:18:03.682Z,18.58
2018-02-13T19:20:31.728Z,19.85
2018-02-13T19:22:59.593Z,12.07
2018-02-13T19:25:27.460Z,12.20
2018-02-13T19:27:55.736Z,15.63
2018-02-13T19:30:23.910Z,8.27
2018-02-13T19:32:51.881Z,9.02
2018-02-13T19:35:19.848Z,11.35
2018-02-13T19:37:47.948Z,21.77
2018-02-13T19:40:15.888Z,15.80
2018-02-13T19:42:43.986Z,12.82
2018-02-13T19:45:12.054Z,18.08
2018-02-13T19:47:40.912Z,11.75
2018-02-13T19:50:09.197Z,16.42
2018-02-13T19:52:37.168Z,12.57
2018-02-13T19:55:05.441Z,26.62
2018-02-13T19:57:34.043Z,25.50
2018-02-13T20:00:02.374Z,20.17
2018-02-13T20:02:30.885Z,29.05
2018-02-13T20:04:59.262Z,27.25
2018-02-13T20:07:27.861Z,20.30
2018-02-13T20:09:56.039Z,24.85
2018-02-13T20:12:24.313Z,18.50
2018-02-13T20:14:53.200Z,12.93
2018-02-13T20:17:21.986Z,18.73
2018-02-13T20:19:50.716Z,13.35
2018-02-13T20:22:19.032Z,19.52
2018-02-13T20:24:46.909Z,18.23
2018-02-13T20:27:15.656Z,12.70
2018-02-13T20:29:43.560Z,13.00
2018-02-13T20:32:13.611Z,23.70
2018-02-13T20:34:44.426Z,20.92
2018-02-13T20:37:13.111Z,18.80
2018-02-13T20:39:41.810Z,19.27
2018-02-13T20:42:10.039Z,13.52
2018-02-13T20:44:38.464Z,13.57
2018-02-13T20:47:06.846Z,14.30
2018-02-13T20:49:35.631Z,13.23
2018-02-13T20:52:03.980Z,28.98
2018-02-13T20:54:32.465Z,23.58
2018-02-13T20:57:00.975Z,66.90
2018-02-13T20:59:29.451Z,75.57
2018-02-13T21:01:58.207Z,41.55
2018-02-13T21:04:26.591Z,52.65
2018-02-13T21:06:55.082Z,42.55
2018-02-13T21:09:24.064Z,42.45
2018-02-13T21:11:52.550Z,42.38
2018-02-13T21:14:21.496Z,52.42
2018-02-13T21:16:49.913Z,50.05
2018-02-13T21:19:18.526Z,34.65
2018-02-13T21:21:47.687Z,28.75
2018-02-13T21:24:15.755Z,30.15
2018-02-13T21:26:45.053Z,41.33
2018-02-13T21:29:13.341Z,36.33
2018-02-13T21:31:43.616Z,29.35
2018-02-13T21:34:12.043Z,26.50
2018-02-13T21:36:40.545Z,23.30
2018-02-13T21:39:09.031Z,20.70
2018-02-13T21:41:38.158Z,21.98
2018-02-13T21:44:07.658Z,15.70
2018-02-13T21:46:36.010Z,16.50
2018-02-13T21:49:04.353Z,14.73
2018-02-13T21:51:32.601Z,16.55
2018-02-13T21:54:03.507Z,12.30
2018-02-13T21:56:31.978Z,15.82
2018-02-13T21:59:00.345Z,17.25
2018-02-13T22:01:28.107Z,19.35
2018-02-13T22:03:57.524Z,14.70
2018-02-13T22:06:26.705Z,15.15
2018-02-13T22:08:55.751Z,20.52
2018-02-13T22:11:23.667Z,17.52
2018-02-13T22:13:51.509Z,17.10
2018-02-13T22:16:19.374Z,18.10
2018-02-13T22:18:47.267Z,17.20
2018-02-13T22:21:15.607Z,22.77
2018-02-13T22:23:43.475Z,14.57
2018-02-13T22:26:11.277Z,13.95
2018-02-13T22:28:39.209Z,18.02
2018-02-13T22:31:07.111Z,17.23
2018-02-13T22:33:35.594Z,19.17
2018-02-13T22:36:03.458Z,22.77
2018-02-13T22:38:31.635Z,26.12
2018-02-13T22:40:59.601Z,19.58
2018-02-13T22:43:27.468Z,18.42
2018-02-13T22:45:55.432Z,26.77
2018-02-13T22:48:23.201Z,21.50
2018-02-13T22:50:51.887Z,14.50
2018-02-13T22:53:20.676Z,21.42
2018-02-13T22:55:48.345Z,20.00
2018-02-13T22:58:16.306Z,30.23
2018-02-13T23:00:44.074Z,43.72
2018-02-13T23:03:11.936Z,65.43
2018-02-13T23:05:40.008Z,57.95
2018-02-13T23:08:08.078Z,67.80
2018-02-13T23:10:36.057Z,50.97
2018-02-13T23:13:03.902Z,26.58
2018-02-13T23:15:31.782Z,34.67
2018-02-13T23:17:59.812Z,26.12
2018-02-13T23:20:27.484Z,21.42
2018-02-13T23:22:55.482Z,15.05
2018-02-13T23:25:23.246Z,15.65
2018-02-13T23:27:50.954Z,21.27
2018-02-13T23:30:19.769Z,24.80
2018-02-13T23:32:47.321Z,20.00
2018-02-13T23:35:15.063Z,24.70
2018-02-13T23:37:42.661Z,19.23
2018-02-13T23:40:10.342Z,23.25
2018-02-13T23:42:38.005Z,26.08
2018-02-13T23:45:05.771Z,18.67
2018-02-13T23:47:33.944Z,27.20
2018-02-13T23:50:01.528Z,14.50
2018-02-13T23:52:29.366Z,21.17
2018-02-13T23:54:57.035Z,18.08
2018-02-13T23:57:24.623Z,19.33
2018-02-13T23:59:52.302Z,22.98
